Flight Track Log - Related Links

Times and Time Zones

All times are in EDT time to prevent confusion due to time zone crossing. See the AAL104 flight status page for this flight to view local times or setup timezone preferences in your user account.

Time Position Orientation Groundspeed Altitude Reporting Facility
EDT Latitude Longitude Course Direction KTS MPH feet Rate Location/Type
Tue 09:40:32 PM 40.6182 -73.6908 269° West  Level FlightAware Approximate
Tue 09:41:32 PM 40.6000 -73.5207 274° West  Level FlightAware Approximate
Tue 09:41:33 PM 40.6167 -73.8667 143° Southeast 203 234 2,100  Level New York TRACON
Tue 09:42:33 PM 40.5667 -73.8167 90° East 262 302 3,800 1,800 Climbing New York TRACON
Tue 09:43:33 PM 40.5667 -73.7167 90° East 284 327 5,700 2,050 Climbing New York TRACON
Tue 09:44:33 PM 40.5661 -73.6139 91° East 292 336 7,900 2,132 Climbing FlightAware ADS-B
Tue 09:44:49 PM 40.5659 -73.5856 91° East 298 343 8,400 1,935 Climbing FlightAware ADS-B
Tue 09:45:04 PM 40.5655 -73.5579 92° East 302 348 8,900 2,000 Climbing FlightAware ADS-B
Tue 09:45:19 PM 40.5649 -73.5294 91° East 307 353 9,400 1,875 Climbing FlightAware ADS-B
Tue 09:45:36 PM 40.5643 -73.4982 90° East 311 358 9,900 1,660 Climbing FlightAware ADS-B
Tue 09:46:06 PM 40.5640 -73.4404 90° East 322 371 10,700 1,700 Climbing FlightAware ADS-B
Tue 09:46:36 PM 40.5639 -73.3785 91° East 343 395 11,600 1,905 Climbing FlightAware ADS-B
Tue 09:47:09 PM 40.5632 -73.3075 91° East 366 421 12,700 2,091 Climbing FlightAware ADS-B
Tue 09:47:42 PM 40.5622 -73.2329 92° East 385 443 13,900 2,667 Climbing FlightAware ADS-B
Tue 09:48:12 PM 40.5606 -73.1606 91° East 387 445 15,500 2,754 Climbing FlightAware ADS-B
Tue 09:48:43 PM 40.5597 -73.0873 88° East 397 457 16,700 2,464 Climbing FlightAware ADS-B
Tue 09:49:08 PM 40.5613 -73.0253 80° East 408 470 17,800 2,357 Climbing FlightAware ADS-B
Tue 09:49:39 PM 40.5720 -72.9485 80° East 421 484 18,900 2,286 Climbing FlightAware ADS-B
Tue 09:50:11 PM 40.5825 -72.8680 82° East 426 490 20,200 2,381 Climbing FlightAware ADS-B
Tue 09:50:42 PM 40.5910 -72.7882 82° East 431 496 21,400 2,286 Climbing FlightAware ADS-B
Tue 09:51:14 PM 40.6001 -72.7041 81° East 442 509 22,600 2,063 Climbing FlightAware ADS-B
Tue 09:51:46 PM 40.6103 -72.6178 81° East 451 519 23,600 1,875 Climbing FlightAware ADS-B
Tue 09:52:18 PM 40.6211 -72.5320 80° East 458 527 24,600 1,905 Climbing FlightAware ADS-B
Tue 09:52:49 PM 40.6323 -72.4442 82° East 465 535 25,600 1,688 Climbing FlightAware ADS-B
Tue 09:53:22 PM 40.6421 -72.3507 83° East 478 550 26,400 1,333 Climbing FlightAware ADS-B
Tue 09:53:52 PM 40.6503 -72.2629 84° East 488 562 27,000 1,258 Climbing FlightAware ADS-B
Tue 09:54:24 PM 40.6582 -72.1687 84° East 497 572 27,700 1,333 Climbing FlightAware ADS-B
Tue 09:54:55 PM 40.6659 -72.0741 84° East 505 581 28,400 1,548 Climbing FlightAware ADS-B
Tue 09:55:26 PM 40.6734 -71.9793 83° East 509 586 29,300 1,462 Climbing FlightAware ADS-B
Tue 09:56:13 PM 40.6862 -71.8324 83° East 514 592 30,300 1,367 Climbing FlightAware ADS-B
Tue 09:56:45 PM 40.6955 -71.7336 72° East 522 601 31,100 1,355 Climbing FlightAware ADS-B
Tue 09:57:46 PM 40.7414 -71.5463 65° Northeast 524 603 32,400 1,200 Climbing FlightAware ADS-B
Tue 09:58:50 PM 40.8031 -71.3681 55° Northeast 519 597 33,600 1,210 Climbing Boston Center
Tue 09:59:50 PM 40.8889 -71.2047 39° Northeast 524 603 34,900 1,100 Climbing Boston Center
Tue 10:00:50 PM 40.9817 -71.1067 37° Northeast 524 603 35,800 1,050 Climbing Boston Center
Tue 10:01:50 PM 41.1072 -70.9800 40° Northeast 512 589 37,000 600 Climbing Boston Center
Tue 10:02:50 PM 41.2200 -70.8533 40° Northeast 525 604 37,000 -50 Level Boston Center
Tue 10:03:50 PM 41.3350 -70.7261 40° Northeast 530 610 36,900  Descending Boston Center
Tue 10:04:50 PM 41.4475 -70.5983 39° Northeast 530 610 37,000  Climbing Boston Center
Tue 10:05:50 PM 41.5744 -70.4589 41° Northeast 535 616 36,900 -50 Descending Boston Center
Tue 10:06:50 PM 41.6867 -70.3272 39° Northeast 535 616 36,900 50 Level Boston Center
Tue 10:07:50 PM 41.8050 -70.1981 43° Northeast 535 616 37,000  Climbing Boston Center
Tue 10:08:50 PM 41.8944 -70.0861 39° Northeast 530 610 36,900  Descending Boston Center
Tue 10:09:50 PM 42.0311 -69.9383 41° Northeast 535 616 37,000  Climbing Boston Center
Tue 10:10:50 PM 42.1406 -69.8081 53° Northeast 542 624 36,900  Descending Boston Center
Tue 10:11:47 PM 42.2000 -69.7000 35° Northeast 530 610 37,000 300 Climbing Moncton Center
Tue 10:12:50 PM 42.3636 -69.5458 40° Northeast 535 616 37,500 585 Climbing Boston Center
Tue 10:13:50 PM 42.4789 -69.4136 44° Northeast 530 610 38,200 750 Climbing Boston Center
Tue 10:14:50 PM 42.5856 -69.2758 41° Northeast 523 602 39,000 350 Climbing Boston Center
Tue 10:15:50 PM 42.6967 -69.1458 42° Northeast 528 608 38,900  Descending Boston Center
Tue 10:16:50 PM 42.8092 -69.0097 41° Northeast 528 608 39,000  Climbing Boston Center
Tue 10:17:50 PM 42.9178 -68.8789 42° Northeast 528 608 38,900  Descending Boston Center
Tue 10:18:50 PM 43.0261 -68.7447 41° Northeast 523 602 39,000  Climbing Boston Center
Tue 10:19:50 PM 43.1364 -68.6128 42° Northeast 523 602 38,900 -50 Descending Boston Center
Tue 10:20:50 PM 43.2464 -68.4747 40° Northeast 523 602 38,900 50 Level Boston Center
Tue 10:21:50 PM 43.3467 -68.3597 43° Northeast 523 602 39,000  Climbing Boston Center
Tue 10:22:50 PM 43.4642 -68.2086 44° Northeast 523 602 38,900 -51 Descending Boston Center
Tue 10:23:47 PM 43.5333 -68.1167 45° Northeast 530 610 38,900 51 Level Moncton Center
Tue 10:24:47 PM 43.6667 -67.9333 38° Northeast 530 610 39,000  Climbing Moncton Center
Tue 10:25:50 PM 43.7861 -67.8033 42° Northeast 523 602 38,900  Descending Boston Center
Tue 10:26:50 PM 43.8953 -67.6681 42° Northeast 523 602 39,000  Climbing Boston Center
Tue 10:27:50 PM 44.0022 -67.5322 43° Northeast 523 602 38,900 -50 Descending Boston Center
Tue 10:28:50 PM 44.1108 -67.3931 42° Northeast 523 602 38,900 50 Level Boston Center
Tue 10:29:50 PM 44.2175 -67.2567 43° Northeast 523 602 39,000 50 Climbing Boston Center
Tue 10:30:50 PM 44.3258 -67.1164 44° Northeast 523 602 39,000 -50 Level Boston Center
Tue 10:31:50 PM 44.4297 -66.9761 47° Northeast 523 602 38,900  Descending Boston Center
Tue 10:32:50 PM 44.5308 -66.8239 49° Northeast 523 602 39,000 51 Climbing Boston Center
Tue 10:33:47 PM 44.6167 -66.6833 47° Northeast 520 598 39,000  Level Moncton Center
Tue 10:34:47 PM 44.7167 -66.5333 52° Northeast 520 598 39,000  Level Moncton Center
Tue 10:35:47 PM 44.8000 -66.3833 50° Northeast 520 598 39,000  Level Moncton Center
Tue 10:36:47 PM 44.9000 -66.2167 39° Northeast 520 598 39,000  Level Moncton Center
Tue 10:37:47 PM 45.0167 -66.0833 50° Northeast 520 598 39,000  Level Moncton Center
Tue 10:38:47 PM 45.1167 -65.9167 52° Northeast 520 598 39,000  Level Moncton Center
Tue 10:39:47 PM 45.2000 -65.7667 47° Northeast 520 598 39,000  Level Moncton Center
Tue 10:40:47 PM 45.3000 -65.6167 46° Northeast 520 598 39,000  Level Moncton Center
Tue 10:41:47 PM 45.4000 -65.4667 54° Northeast 520 598 39,000  Level Moncton Center
Tue 10:42:47 PM 45.4833 -65.3000 43° Northeast 520 598 39,000  Level Moncton Center
Tue 10:43:47 PM 45.5833 -65.1667 54° Northeast 520 598 39,000  Level Moncton Center
Tue 10:44:47 PM 45.6667 -65.0000 46° Northeast 520 598 39,000  Level Moncton Center
Tue 10:45:47 PM 45.7667 -64.8500 45° Northeast 520 598 39,000  Level Moncton Center
Tue 10:46:47 PM 45.8833 -64.6833 46° Northeast 520 598 39,000  Level Moncton Center
Tue 10:47:47 PM 45.9833 -64.5333 49° Northeast 530 610 39,000  Level Moncton Center
Tue 10:48:47 PM 46.0833 -64.3667 48° Northeast 520 598 39,000  Level Moncton Center
Tue 10:49:47 PM 46.1667 -64.2333 52° Northeast 520 598 39,000  Level Moncton Center
Tue 10:50:47 PM 46.2667 -64.0500 48° Northeast 520 598 39,000  Level Moncton Center
Tue 10:52:40 PM 46.4333 -63.7833 47° Northeast 520 598 39,000  Level Gander Center
Tue 10:53:47 PM 46.5500 -63.6000 57° Northeast 510 587 39,000  Level Moncton Center
Tue 10:54:47 PM 46.6167 -63.4500 56° Northeast 510 587 39,000  Level Moncton Center
Tue 10:55:47 PM 46.7000 -63.2667 41° Northeast 510 587 39,000  Level Moncton Center
Tue 10:56:47 PM 46.8167 -63.1167 54° Northeast 520 598 39,000  Level Gander Center
Tue 10:57:47 PM 46.9000 -62.9500 51° Northeast 510 587 39,000  Level Gander Center
Tue 10:58:47 PM 46.9833 -62.8000 49° Northeast 510 587 39,000  Level Gander Center
Tue 10:59:47 PM 47.0833 -62.6333 51° Northeast 510 587 39,000  Level Gander Center
Tue 11:00:47 PM 47.1667 -62.4833 48° Northeast 510 587 39,000  Level Gander Center
Tue 11:01:47 PM 47.2667 -62.3167 51° Northeast 510 587 39,000  Level Gander Center
Tue 11:02:47 PM 47.3500 -62.1667 48° Northeast 480 552 39,000  Level Gander Center
Tue 11:03:47 PM 47.4500 -62.0000 53° Northeast 500 575 39,000  Level Gander Center
Tue 11:04:47 PM 47.5333 -61.8333 50° Northeast 520 598 39,000  Level Gander Center
Tue 11:05:47 PM 47.6167 -61.6833 51° Northeast 510 587 39,000  Level Gander Center
Tue 11:06:47 PM 47.7167 -61.5000 50° Northeast 500 575 39,000  Level Gander Center
Tue 11:07:47 PM 47.8000 -61.3500 53° Northeast 500 575 39,000  Level Gander Center
Tue 11:08:47 PM 47.8833 -61.1833 50° Northeast 500 575 39,000  Level Gander Center
Tue 11:09:47 PM 47.9667 -61.0333 51° Northeast 500 575 39,000  Level Gander Center
Tue 11:10:47 PM 48.0667 -60.8500 50° Northeast 500 575 39,000  Level Gander Center
Tue 11:11:47 PM 48.1500 -60.7000 53° Northeast 500 575 39,000  Level Gander Center
Tue 11:12:47 PM 48.2333 -60.5333 50° Northeast 500 575 39,000  Level Gander Center
Tue 11:13:47 PM 48.3167 -60.3833 51° Northeast 500 575 39,000  Level Gander Center
Tue 11:14:47 PM 48.4167 -60.2000 56° Northeast 500 575 39,000  Level Gander Center
Tue 11:15:47 PM 48.4833 -60.0500 53° Northeast 500 575 39,000  Level Gander Center
Tue 11:17:47 PM 48.6500 -59.7167 51° Northeast 500 575 39,000 52 Level Gander Center
Tue 11:19:40 PM 48.8167 -59.4000 53° Northeast 500 575 39,200  Climbing Gander Center
Tue 11:20:47 PM 48.9167 -59.2000 53° Northeast 500 575 39,000 -94 Descending Gander Center
Tue 11:21:47 PM 49.0000 -59.0333 61° Northeast 510 587 39,000  Level Gander Center
Tue 11:22:47 PM 49.0667 -58.8500 44° Northeast 510 587 39,000  Level Gander Center
Tue 11:23:47 PM 49.1667 -58.7000 55° Northeast 510 587 39,000  Level Gander Center
Tue 11:24:47 PM 49.2500 -58.5167 55° Northeast 510 587 39,000  Level Gander Center
Tue 11:25:47 PM 49.3333 -58.3333 70° East 520 598 39,000  Level Gander Center
Tue 11:26:47 PM 49.3833 -58.1167 55° Northeast 520 598 39,000  Level Gander Center
Tue 11:27:46 PM 49.4667 -57.9333 61° Northeast 520 598 39,000  Level Gander Center
Tue 11:28:47 PM 49.5333 -57.7500 65° Northeast 520 598 39,000  Level Gander Center
Tue 11:29:47 PM 49.6000 -57.5333 55° Northeast 520 598 39,000  Level Gander Center
Tue 11:30:46 PM 49.6833 -57.3500 64° Northeast 520 598 39,000  Level Gander Center
Tue 11:31:47 PM 49.7500 -57.1333 61° Northeast 520 598 39,000  Level Gander Center
Tue 11:32:47 PM 49.8167 -56.9500 61° Northeast 520 598 39,000  Level Gander Center
Tue 11:33:47 PM 49.8833 -56.7667 60° Northeast 530 610 39,000  Level Gander Center
Tue 11:34:47 PM 49.9500 -56.5833 59° Northeast 520 598 39,000  Level Gander Center
Tue 11:35:47 PM 50.0333 -56.3667 69° East 520 598 39,000  Level Gander Center
Tue 11:36:47 PM 50.0833 -56.1667 55° Northeast 520 598 39,000  Level Gander Center
Tue 11:37:47 PM 50.1667 -55.9833 64° Northeast 520 598 39,000  Level Gander Center
Tue 11:38:46 PM 50.2333 -55.7667 62° Northeast 520 598 39,000  Level Gander Center
Tue 11:39:47 PM 50.3000 -55.5667 61° Northeast 520 598 39,000  Level Gander Center
Tue 11:41:46 PM 50.4333 -55.1833 64° Northeast 510 587 39,000  Level Gander Center
Tue 11:42:47 PM 50.5000 -54.9667 67° East 500 575 39,000  Level Gander Center
Tue 11:43:47 PM 50.5500 -54.7833 62° Northeast 500 575 39,000 50 Level Gander Center
Tue 11:44:46 PM 50.6167 -54.5833 66° East 500 575 39,100  Climbing Gander Center
Tue 11:45:16 PM 50.6500 -54.4667 58° Northeast 600 690 39,000 -67 Descending Gander Center
Tue 11:46:16 PM 50.7167 -54.3000 67° East 500 575 39,000 50 Level Gander Center
Tue 11:47:16 PM 50.7667 -54.1167 66° East 510 587 39,100  Climbing Gander Center
Tue 11:48:16 PM 50.8333 -53.8833 58° Northeast 500 575 39,000 -200 Descending Gander Center
Tue 11:49:16 PM 50.9000 -53.7167 66° East 500 575 38,700  Descending Gander Center
Tue 11:50:40 PM 50.9833 -53.4167 60° Northeast 510 587 39,000 125 Climbing Gander Center
Tue 11:51:40 PM 51.0500 -53.2333 64° Northeast 500 575 39,000  Level Gander Center
Tue 11:52:40 PM 51.1167 -53.0167 77° East 490 564 39,000  Level Gander Center
Tue 11:53:16 PM 51.1333 -52.9000 61° Northeast 500 575 39,000  Level Gander Center
Tue 11:54:40 PM 51.2333 -52.6167 64° Northeast 500 575 39,000  Level Gander Center
Tue 11:55:40 PM 51.2833 -52.4500 62° Northeast 500 575 39,000  Level Gander Center
Tue 11:56:40 PM 51.3500 -52.2500 70° East 500 575 39,000  Level Gander Center
Tue 11:57:16 PM 51.3833 -52.1000 68° East 490 564 39,000  Level Gander Center
Tue 11:58:17 PM 51.4333 -51.9000 62° Northeast 510 587 39,000 50 Level Gander Center
Tue 11:59:17 PM 51.5000 -51.7000 64° Northeast 500 575 39,100  Climbing Gander Center
Wed 12:00:17 AM 51.5500 -51.5333 65° Northeast 500 575 39,000 -50 Descending Gander Center
Wed 12:01:17 AM 51.6167 -51.3000 68° East 490 564 39,000  Level Gander Center
Wed 12:02:17 AM 51.6667 -51.1000 64° Northeast 490 564 39,000  Level Gander Center
Wed 12:03:17 AM 51.7333 -50.8833 68° East 490 564 39,000  Level Gander Center
Wed 12:04:17 AM 51.7833 -50.6833 64° Northeast 490 564 39,000  Level Gander Center
Wed 12:05:17 AM 51.8333 -50.5167 65° Northeast 510 587 39,000  Level Gander Center
Wed 12:06:17 AM 51.9000 -50.2833 68° East 500 575 39,000  Level Gander Center
Wed 12:07:17 AM 51.9500 -50.0833 72° East 500 575 39,000 -69 Level Gander Center
Wed 12:16:32 AM 52.2448 -48.1329 73° East  Level FlightAware Approximate
Wed 12:17:32 AM 52.2720 -47.9177 73° East  Level FlightAware Approximate
Wed 12:18:32 AM 52.2988 -47.7023 73° East  Level FlightAware Approximate
Wed 12:19:32 AM 52.3227 -47.4859 73° East  Level FlightAware Approximate
Wed 12:20:32 AM 52.3492 -47.2701 74° East  Level FlightAware Approximate
Wed 12:21:32 AM 52.3753 -47.0541 74° East  Level FlightAware Approximate
Wed 12:22:32 AM 52.4010 -46.8378 74° East  Level FlightAware Approximate
Wed 12:23:32 AM 52.4263 -46.6213 74° East  Level FlightAware Approximate
Wed 12:24:32 AM 52.4512 -46.4046 74° East  Level FlightAware Approximate
Wed 12:25:32 AM 52.4790 -46.1887 74° East  Level FlightAware Approximate
Wed 12:26:32 AM 52.5060 -45.9723 75° East  Level FlightAware Approximate
Wed 12:27:32 AM 52.5326 -45.7557 75° East  Level FlightAware Approximate
Wed 12:28:32 AM 52.5588 -45.5388 75° East  Level FlightAware Approximate
Wed 12:29:32 AM 52.5846 -45.3217 75° East  Level FlightAware Approximate
Wed 12:30:32 AM 52.6100 -45.1043 75° East  Level FlightAware Approximate
Wed 12:31:32 AM 52.6350 -44.8866 75° East  Level FlightAware Approximate
Wed 12:32:32 AM 52.6596 -44.6687 75° East  Level FlightAware Approximate
Wed 12:33:32 AM 52.6838 -44.4506 76° East  Level FlightAware Approximate
Wed 12:34:32 AM 52.7076 -44.2322 76° East  Level FlightAware Approximate
Wed 12:35:32 AM 52.7310 -44.0136 76° East  Level FlightAware Approximate
Wed 12:36:32 AM 52.7173 -43.7930 76° East  Level FlightAware Approximate
Wed 12:37:32 AM 52.7460 -43.5760 76° East  Level FlightAware Approximate
Wed 12:38:32 AM 52.7744 -43.3588 76° East  Level FlightAware Approximate
Wed 12:39:32 AM 52.8024 -43.1413 76° East  Level FlightAware Approximate
Wed 12:40:32 AM 52.8299 -42.9236 77° East  Level FlightAware Approximate
Wed 12:41:32 AM 52.8571 -42.7055 77° East  Level FlightAware Approximate
Wed 12:42:32 AM 52.8198 -42.4959 77° East  Level FlightAware Approximate
Wed 12:43:32 AM 52.8496 -42.2788 77° East  Level FlightAware Approximate
Wed 12:44:32 AM 52.8790 -42.0615 77° East  Level FlightAware Approximate
Wed 12:45:32 AM 52.9080 -41.8438 77° East  Level FlightAware Approximate
Wed 12:46:32 AM 52.9366 -41.6259 78° East  Level FlightAware Approximate
Wed 12:47:32 AM 52.9649 -41.4077 78° East  Level FlightAware Approximate
Wed 12:48:32 AM 52.9927 -41.1892 78° East  Level FlightAware Approximate
Wed 12:49:32 AM 53.0205 -40.9674 78° East  Level FlightAware Approximate
Wed 12:50:32 AM 53.0478 -40.7454 78° East  Level FlightAware Approximate
Wed 12:51:32 AM 53.0748 -40.5232 78° East  Level FlightAware Approximate
Wed 12:52:32 AM 53.1013 -40.3006 79° East  Level FlightAware Approximate
Wed 12:53:32 AM 53.1274 -40.0778 79° East  Level FlightAware Approximate
Wed 12:54:32 AM 53.1543 -39.8550 79° East  Level FlightAware Approximate
Wed 12:55:32 AM 53.1806 -39.6332 79° East  Level FlightAware Approximate
Wed 12:56:32 AM 53.2066 -39.4112 79° East  Level FlightAware Approximate
Wed 12:57:32 AM 53.2320 -39.1888 79° East  Level FlightAware Approximate
Wed 12:58:32 AM 53.2571 -38.9662 80° East  Level FlightAware Approximate
Wed 12:59:32 AM 53.2818 -38.7434 80° East  Level FlightAware Approximate
Wed 01:00:32 AM 53.3084 -38.5210 80° East  Level FlightAware Approximate
Wed 01:01:32 AM 53.3345 -38.2983 80° East  Level FlightAware Approximate
Wed 01:02:32 AM 53.3603 -38.0754 80° East  Level FlightAware Approximate
Wed 01:03:32 AM 53.3856 -37.8522 81° East  Level FlightAware Approximate
Wed 01:04:32 AM 53.4105 -37.6288 81° East  Level FlightAware Approximate
Wed 01:05:32 AM 53.4350 -37.4050 81° East  Level FlightAware Approximate
Wed 01:06:32 AM 53.4591 -37.1811 81° East  Level FlightAware Approximate
Wed 01:07:32 AM 53.4828 -36.9569 81° East  Level FlightAware Approximate
Wed 01:08:32 AM 53.5060 -36.7324 81° East  Level FlightAware Approximate
Wed 01:09:32 AM 53.5288 -36.5077 82° East  Level FlightAware Approximate
Wed 01:10:32 AM 53.5512 -36.2827 82° East  Level FlightAware Approximate
Wed 01:11:32 AM 53.5732 -36.0575 82° East  Level FlightAware Approximate
Wed 01:12:32 AM 53.5947 -35.8321 82° East  Level FlightAware Approximate
Wed 01:13:32 AM 53.6159 -35.6065 82° East  Level FlightAware Approximate
Wed 01:14:32 AM 53.6366 -35.3806 83° East  Level FlightAware Approximate
Wed 01:15:32 AM 53.6568 -35.1545 83° East  Level FlightAware Approximate
Wed 01:16:32 AM 53.6084 -34.9645 83° East  Level FlightAware Approximate
Wed 01:17:32 AM 53.6295 -34.7387 83° East  Level FlightAware Approximate
Wed 01:18:32 AM 53.6501 -34.5127 83° East  Level FlightAware Approximate
Wed 01:19:32 AM 53.6703 -34.2865 83° East  Level FlightAware Approximate
Wed 01:20:32 AM 53.6900 -34.0601 84° East  Level FlightAware Approximate
Wed 01:21:32 AM 53.7094 -33.8335 84° East  Level FlightAware Approximate
Wed 01:22:32 AM 53.7327 -33.6085 84° East  Level FlightAware Approximate
Wed 01:23:32 AM 53.7510 -33.3815 84° East  Level FlightAware Approximate
Wed 01:24:32 AM 53.7689 -33.1542 84° East  Level FlightAware Approximate
Wed 01:25:32 AM 53.7864 -32.9267 85° East  Level FlightAware Approximate
Wed 01:26:32 AM 53.8034 -32.6991 85° East  Level FlightAware Approximate
Wed 01:27:32 AM 53.8218 -32.4716 85° East  Level FlightAware Approximate
Wed 01:28:32 AM 53.8368 -32.2433 85° East  Level FlightAware Approximate
Wed 01:29:32 AM 53.8513 -32.0149 85° East  Level FlightAware Approximate
Wed 01:30:32 AM 53.8654 -31.7863 86° East  Level FlightAware Approximate
Wed 01:31:32 AM 53.8790 -31.5576 86° East  Level FlightAware Approximate
Wed 01:32:32 AM 53.8923 -31.3287 86° East  Level FlightAware Approximate
Wed 01:33:32 AM 53.9051 -31.0997 86° East  Level FlightAware Approximate
Wed 01:34:32 AM 53.9174 -30.8706 86° East  Level FlightAware Approximate
Wed 01:35:32 AM 53.9293 -30.6413 87° East  Level FlightAware Approximate
Wed 01:36:32 AM 53.9408 -30.4118 87° East  Level FlightAware Approximate
Wed 01:37:32 AM 53.9519 -30.1823 87° East  Level FlightAware Approximate
Wed 01:38:32 AM 54.0013 -29.9694 87° East  Level FlightAware Approximate
Wed 01:39:32 AM 54.0105 -29.7393 87° East  Level FlightAware Approximate
Wed 01:40:32 AM 54.0194 -29.5091 88° East  Level FlightAware Approximate
Wed 01:41:32 AM 54.0278 -29.2789 88° East  Level FlightAware Approximate
Wed 01:42:32 AM 54.0358 -29.0485 88° East  Level FlightAware Approximate
Wed 01:43:32 AM 54.0433 -28.8180 88° East  Level FlightAware Approximate
Wed 01:44:32 AM 54.0504 -28.5875 88° East  Level FlightAware Approximate
Wed 01:45:32 AM 54.0570 -28.3568 89° East  Level FlightAware Approximate
Wed 01:46:32 AM 54.0633 -28.1261 89° East  Level FlightAware Approximate
Wed 01:47:32 AM 54.0690 -27.8954 89° East  Level FlightAware Approximate
Wed 01:48:32 AM 54.0743 -27.6646 89° East  Level FlightAware Approximate
Wed 01:49:32 AM 54.0792 -27.4337 89° East  Level FlightAware Approximate
Wed 01:50:32 AM 54.0837 -27.2027 90° East  Level FlightAware Approximate
Wed 01:51:32 AM 54.0861 -26.9718 90° East  Level FlightAware Approximate
Wed 01:52:32 AM 54.0897 -26.7407 90° East  Level FlightAware Approximate
Wed 01:53:32 AM 54.0928 -26.5097 90° East  Level FlightAware Approximate
Wed 01:54:32 AM 54.0956 -26.2786 90° East  Level FlightAware Approximate
Wed 01:55:32 AM 54.0979 -26.0475 91° East  Level FlightAware Approximate
Wed 01:56:32 AM 54.0997 -25.8164 91° East  Level FlightAware Approximate
Wed 01:57:32 AM 54.1007 -25.5852 91° East  Level FlightAware Approximate
Wed 01:58:32 AM 54.0997 -25.3541 91° East  Level FlightAware Approximate
Wed 01:59:32 AM 54.0984 -25.1229 91° East  Level FlightAware Approximate
Wed 02:00:32 AM 54.0966 -24.8918 92° East  Level FlightAware Approximate
Wed 02:01:32 AM 54.0943 -24.6607 92° East  Level FlightAware Approximate
Wed 02:02:32 AM 54.0916 -24.4296 92° East  Level FlightAware Approximate
Wed 02:03:32 AM 54.0885 -24.1986 92° East  Level FlightAware Approximate
Wed 02:04:32 AM 54.0849 -23.9676 92° East  Level FlightAware Approximate
Wed 02:05:32 AM 54.0809 -23.7366 93° East  Level FlightAware Approximate
Wed 02:06:32 AM 54.0765 -23.5057 93° East  Level FlightAware Approximate
Wed 02:07:32 AM 54.0716 -23.2748 93° East  Level FlightAware Approximate
Wed 02:08:32 AM 54.0662 -23.0440 93° East  Level FlightAware Approximate
Wed 02:09:32 AM 54.0605 -22.8133 93° East  Level FlightAware Approximate
Wed 02:10:32 AM 54.0542 -22.5826 94° East  Level FlightAware Approximate
Wed 02:11:32 AM 54.0476 -22.3520 94° East  Level FlightAware Approximate
Wed 02:12:32 AM 54.0405 -22.1215 94° East  Level FlightAware Approximate
Wed 02:13:32 AM 54.0329 -21.8910 94° East  Level FlightAware Approximate
Wed 02:14:32 AM 54.0249 -21.6606 94° East  Level FlightAware Approximate
Wed 02:15:32 AM 54.0165 -21.4304 95° East  Level FlightAware Approximate
Wed 02:16:32 AM 54.0076 -21.2002 95° East  Level FlightAware Approximate
Wed 02:17:32 AM 53.9983 -20.9701 95° East  Level FlightAware Approximate
Wed 02:18:32 AM 53.9886 -20.7401 95° East  Level FlightAware Approximate
Wed 02:19:32 AM 53.9784 -20.5103 95° East  Level FlightAware Approximate
Wed 02:20:32 AM 53.9678 -20.2805 96° East  Level FlightAware Approximate
Wed 02:21:32 AM 53.9567 -20.0509 96° East  Level FlightAware Approximate
Wed 02:22:32 AM 53.9439 -19.8216 96° East  Level FlightAware Approximate
Wed 02:23:32 AM 53.9307 -19.5924 96° East  Level FlightAware Approximate
Wed 02:24:32 AM 53.9170 -19.3634 96° East  Level FlightAware Approximate
Wed 02:25:32 AM 53.9030 -19.1346 96° East  Level FlightAware Approximate
Wed 02:26:32 AM 53.8884 -18.9059 97° East  Level FlightAware Approximate
Wed 02:27:32 AM 53.8735 -18.6773 97° East  Level FlightAware Approximate
Wed 02:28:32 AM 53.8581 -18.4489 97° East  Level FlightAware Approximate
Wed 02:29:32 AM 53.8422 -18.2207 97° East  Level FlightAware Approximate
Wed 02:30:32 AM 53.8260 -17.9927 97° East  Level FlightAware Approximate
Wed 02:31:32 AM 53.8093 -17.7649 98° East  Level FlightAware Approximate
Wed 02:32:32 AM 53.7922 -17.5372 98° East  Level FlightAware Approximate
Wed 02:33:32 AM 53.7746 -17.3097 98° East  Level FlightAware Approximate
Wed 02:34:32 AM 53.7566 -17.0824 98° East  Level FlightAware Approximate
Wed 02:35:32 AM 53.7382 -16.8553 98° East  Level FlightAware Approximate
Wed 02:36:32 AM 53.7194 -16.6284 99° East  Level FlightAware Approximate
Wed 02:37:32 AM 53.7001 -16.4018 99° East  Level FlightAware Approximate
Wed 02:38:32 AM 53.6804 -16.1753 99° East  Level FlightAware Approximate
Wed 02:39:32 AM 53.6603 -15.9490 99° East  Level FlightAware Approximate
Wed 02:40:32 AM 53.6397 -15.7230 99° East  Level FlightAware Approximate
Wed 02:41:32 AM 53.6187 -15.4972 100° East  Level FlightAware Approximate
Wed 02:42:32 AM 53.5973 -15.2716 100° East  Level FlightAware Approximate
Wed 02:43:32 AM 53.5755 -15.0462 100° East  Level FlightAware Approximate
Wed 02:44:32 AM 53.5833 -14.8360 100° East  Level FlightAware Approximate
Wed 02:45:32 AM 53.5600 -14.6111 100° East  Level FlightAware Approximate
Wed 02:46:32 AM 53.5363 -14.3865 101° East  Level FlightAware Approximate
Wed 02:47:32 AM 53.5122 -14.1622 101° East  Level FlightAware Approximate
Wed 02:48:32 AM 53.4876 -13.9381 101° East  Level FlightAware Approximate
Wed 02:49:32 AM 53.4626 -13.7142 101° East  Level FlightAware Approximate
Wed 02:50:32 AM 53.4372 -13.4907 101° East  Level FlightAware Approximate
Wed 02:51:32 AM 53.4114 -13.2673 102° East  Level FlightAware Approximate
Wed 02:52:32 AM 53.3852 -13.0443 102° East  Level FlightAware Approximate
Wed 02:53:32 AM 53.3585 -12.8216 102° East  Level FlightAware Approximate
Wed 02:54:32 AM 53.3315 -12.5991 102° East  Level FlightAware Approximate
Wed 02:55:32 AM 53.3040 -12.3769 102° East  Level FlightAware Approximate
Wed 02:56:32 AM 53.2761 -12.1550 103° East  Level FlightAware Approximate
Wed 02:57:32 AM 53.2478 -11.9334 103° East  Level FlightAware Approximate
Wed 02:58:32 AM 53.2191 -11.7121 103° East  Level FlightAware Approximate
Wed 02:59:32 AM 53.1900 -11.4910 103° East  Level FlightAware Approximate
Wed 03:00:32 AM 53.1614 -11.2700 103° East  Level FlightAware Approximate
Wed 03:01:32 AM 53.1368 -11.0477 104° East  Level FlightAware Approximate
Wed 03:02:32 AM 53.1118 -10.8257 104° East  Level FlightAware Approximate
Wed 03:03:32 AM 53.0864 -10.6040 104° East  Level FlightAware Approximate
Wed 03:04:32 AM 53.0606 -10.3825 104° East  Level FlightAware Approximate
Wed 03:05:32 AM 53.0344 -10.1613 105° East  Level FlightAware Approximate
Wed 03:06:32 AM 53.0078 -9.9403 105° East  Level FlightAware Approximate
Wed 03:07:32 AM 52.9807 -9.7197 105° East  Level FlightAware Approximate
Wed 03:08:32 AM 52.9533 -9.4993 106° East  Level FlightAware Approximate
Wed 03:09:32 AM 52.9254 -9.2792 106° East  Level FlightAware Approximate
Wed 03:10:32 AM 52.8971 -9.0593 106° East  Level FlightAware Approximate
Wed 03:11:32 AM 52.8685 -8.8398 107° East  Level FlightAware Approximate
Wed 03:12:32 AM 52.8394 -8.6206 107° East  Level FlightAware Approximate
Wed 03:13:32 AM 52.8099 -8.4016 107° East  Level FlightAware Approximate
Wed 03:14:32 AM 52.7800 -8.1830 108° East  Level FlightAware Approximate
Wed 03:15:32 AM 52.7497 -7.9646 108° East  Level FlightAware Approximate
Wed 03:16:32 AM 52.7191 -7.7466 108° East  Level FlightAware Approximate
Wed 03:17:32 AM 52.6880 -7.5288 109° East  Level FlightAware Approximate
Wed 03:18:32 AM 52.6565 -7.3114 109° East  Level FlightAware Approximate
Wed 03:19:32 AM 52.6246 -7.0943 110° East  Level FlightAware Approximate
Wed 03:20:32 AM 52.5921 -6.8758 110° East  Level FlightAware Approximate
Wed 03:21:32 AM 52.5591 -6.6575 111° Southeast  Level FlightAware Approximate
Wed 03:22:32 AM 52.5258 -6.4396 111° Southeast  Level FlightAware Approximate
Wed 03:23:32 AM 52.4921 -6.2221 112° Southeast  Level FlightAware Approximate
Wed 03:24:32 AM 52.4579 -6.0049 113° Southeast  Level FlightAware Approximate
Wed 03:25:32 AM 52.4236 -5.7879 113° Southeast  Level FlightAware Approximate
Wed 03:26:32 AM 52.3888 -5.5713 114° Southeast  Level FlightAware Approximate
Wed 03:27:32 AM 52.3547 -5.3545 115° Southeast  Level FlightAware Approximate
Wed 03:28:36 AM 51.6607 -3.0529 107° East 485 558 25,000  Level FlightAware ADS-B
Wed 03:29:09 AM 51.6397 -2.9403 110° East 477 549 23,900 -1,917 Descending FlightAware ADS-B
Wed 03:29:48 AM 51.6103 -2.8138 116° Southeast 473 544 22,700 -1,829 Descending FlightAware ADS-B
Wed 03:30:31 AM 51.5690 -2.6793 116° Southeast 466 536 21,400 -1,692 Descending FlightAware ADS-B
Wed 03:31:06 AM 51.5360 -2.5721 116° Southeast 453 521 20,500 -1,364 Descending FlightAware ADS-B
Wed 03:31:37 AM 51.5100 -2.4856 116° Southeast 436 502 19,900 -1,147 Descending FlightAware ADS-B
Wed 03:32:14 AM 51.4771 -2.3780 116° Southeast 420 483 19,200 -1,125 Descending FlightAware ADS-B
Wed 03:32:25 AM 51.4678 -2.3479 116° Southeast 412 474 19,000 -1,000 Descending FlightAware ADS-B
Wed 03:32:44 AM 51.4524 -2.2966 110° East 416 479 18,700 -1,034 Descending FlightAware ADS-B
Wed 03:32:54 AM 51.4454 -2.2650 102° East 417 480 18,500 -1,350 Descending FlightAware ADS-B
Wed 03:33:24 AM 51.4335 -2.1751 101° East 418 481 17,800 -1,279 Descending FlightAware ADS-B
Wed 03:33:55 AM 51.4216 -2.0795 101° East 414 476 17,200 -1,238 Descending FlightAware ADS-B
Wed 03:34:27 AM 51.4102 -1.9874 102° East 408 470 16,500 -1,355 Descending FlightAware ADS-B
Wed 03:34:57 AM 51.3987 -1.8979 102° East 404 465 15,800 -1,377 Descending FlightAware ADS-B
Wed 03:35:28 AM 51.3869 -1.8082 102° East 400 460 15,100 -1,377 Descending FlightAware ADS-B
Wed 03:35:58 AM 51.3755 -1.7211 102° East 396 456 14,400 -1,100 Descending FlightAware ADS-B
Wed 03:36:28 AM 51.3644 -1.6353 101° East 390 449 14,000 -393 Descending FlightAware ADS-B
Wed 03:36:59 AM 51.3534 -1.5487 102° East 390 449 14,000 -197 Level FlightAware ADS-B
Wed 03:37:29 AM 51.3427 -1.4647 101° East 385 443 13,800 -700 Descending FlightAware ADS-B
Wed 03:37:59 AM 51.3322 -1.3817 102° East 381 438 13,300 -1,065 Descending FlightAware ADS-B
Wed 03:38:31 AM 51.3209 -1.2961 102° East 376 433 12,700 -1,048 Descending FlightAware ADS-B
Wed 03:39:02 AM 51.3098 -1.2120 102° East 371 427 12,200 -792 Descending FlightAware ADS-B
Wed 03:39:24 AM 51.3023 -1.1547 99° East 358 412 12,000 -353 Descending FlightAware ADS-B
Wed 03:39:36 AM 51.2992 -1.1232 96° East 343 395 12,000  Level FlightAware ADS-B
Wed 03:39:49 AM 51.2971 -1.0906 92° East 327 376 12,000  Level FlightAware ADS-B
Wed 03:40:08 AM 51.2960 -1.0478 89° East 307 353 12,000 -125 Level FlightAware ADS-B
Wed 03:40:37 AM 51.2968 -0.9838 89° East 282 325 11,900 -610 Descending FlightAware ADS-B
Wed 03:41:07 AM 51.2976 -0.9229 88° East 274 315 11,400 -1,100 Descending FlightAware ADS-B
Wed 03:41:37 AM 51.2986 -0.8638 88° East 271 312 10,800 -1,200 Descending FlightAware ADS-B
Wed 03:42:07 AM 51.2996 -0.8039 89° East 271 312 10,200 -1,116 Descending FlightAware ADS-B
Wed 03:42:20 AM 51.2999 -0.7772 89° East 270 311 10,000 -462 Descending FlightAware ADS-B
Wed 03:42:33 AM 51.3003 -0.7523 88° East 269 310 10,000  Level FlightAware ADS-B
Wed 03:43:04 AM 51.3013 -0.6908 89° East 269 310 10,000  Level FlightAware ADS-B
Wed 03:43:22 AM 51.3017 -0.6642 89° East 267 307 10,000  Level FlightAware ADS-B
Wed 03:43:52 AM 51.3028 -0.5952 88° East 267 307 10,000  Level FlightAware ADS-B
Wed 03:44:23 AM 51.3038 -0.5357 89° East 267 307 10,000  Level FlightAware ADS-B
Wed 03:44:49 AM 51.3045 -0.4836 88° East 268 308 10,000 -158 Level FlightAware ADS-B
Wed 03:45:01 AM 51.3049 -0.4600 86° East 266 306 9,900 -667 Descending FlightAware ADS-B
Wed 03:45:07 AM 51.3054 -0.4487 84° East 265 305 9,800 -1,091 Descending FlightAware ADS-B
Wed 03:45:12 AM 51.3061 -0.4379 80° East 264 304 9,700 -1,125 Descending FlightAware ADS-B
Wed 03:45:23 AM 51.3083 -0.4170 80° East 261 300 9,500 -1,091 Descending FlightAware ADS-B
Wed 03:45:34 AM 51.3105 -0.3977 81° East 260 299 9,300 -1,071 Descending FlightAware ADS-B
Wed 03:45:51 AM 51.3136 -0.3653 84° East 261 300 9,000 -692 Descending FlightAware ADS-B
Wed 03:46:00 AM 51.3148 -0.3479 93° East 263 303 9,000  Level FlightAware ADS-B
Wed 03:46:05 AM 51.3145 -0.3382 104° East 268 308 9,000  Level FlightAware ADS-B
Wed 03:46:11 AM 51.3126 -0.3260 116° Southeast 273 314 9,000  Level FlightAware ADS-B
Wed 03:46:18 AM 51.3086 -0.3130 127° Southeast 276 318 9,000  Level FlightAware ADS-B
Wed 03:46:22 AM 51.3054 -0.3061 135° Southeast 278 320 9,000  Level FlightAware ADS-B
Wed 03:46:29 AM 51.2997 -0.2970 150° Southeast 279 321 9,000  Level FlightAware ADS-B
Wed 03:46:37 AM 51.2903 -0.2882 163° South 279 321 9,000  Level FlightAware ADS-B
Wed 03:46:42 AM 51.2843 -0.2853 172° South 276 318 9,000  Level FlightAware ADS-B
Wed 03:46:46 AM 51.2792 -0.2841 180° South 275 316 9,000  Level FlightAware ADS-B
Wed 03:46:51 AM 51.2731 -0.2841 192° South 271 312 9,000  Level FlightAware ADS-B
Wed 03:46:58 AM 51.2650 -0.2868 202° Southwest 265 305 9,000  Level FlightAware ADS-B
Wed 03:47:02 AM 51.2603 -0.2898 210° Southwest 262 302 9,000  Level FlightAware ADS-B
Wed 03:47:07 AM 51.2555 -0.2943 219° Southwest 257 296 9,000  Level FlightAware ADS-B
Wed 03:47:13 AM 51.2502 -0.3012 230° Southwest 251 289 9,000  Level FlightAware ADS-B
Wed 03:47:19 AM 51.2456 -0.3100 242° Southwest 247 284 9,000  Level FlightAware ADS-B
Wed 03:47:26 AM 51.2421 -0.3204 251° West 241 277 9,000  Level FlightAware ADS-B
Wed 03:47:30 AM 51.2405 -0.3277 258° West 236 272 9,000  Level FlightAware ADS-B
Wed 03:47:34 AM 51.2397 -0.3336 265° West 233 268 9,000  Level FlightAware ADS-B
Wed 03:47:39 AM 51.2392 -0.3420 271° West 228 262 9,000  Level FlightAware ADS-B
Wed 03:47:43 AM 51.2393 -0.3488 276° West 227 261 9,000  Level FlightAware ADS-B
Wed 03:47:46 AM 51.2397 -0.3548 284° West 226 260 9,000  Level FlightAware ADS-B
Wed 03:47:50 AM 51.2406 -0.3607 289° West 224 258 9,000  Level FlightAware ADS-B
Wed 03:47:54 AM 51.2419 -0.3668 294° West 223 257 9,000  Level FlightAware ADS-B
Wed 03:47:57 AM 51.2432 -0.3714 301° West 221 254 9,000  Level FlightAware ADS-B
Wed 03:48:03 AM 51.2462 -0.3794 309° West 219 252 9,000  Level FlightAware ADS-B
Wed 03:48:08 AM 51.2495 -0.3860 316° Northwest 218 251 9,000  Level FlightAware ADS-B
Wed 03:48:12 AM 51.2524 -0.3905 321° Northwest 217 250 9,000  Level FlightAware ADS-B
Wed 03:48:16 AM 51.2552 -0.3940 327° Northwest 217 250 9,000  Level FlightAware ADS-B
Wed 03:48:19 AM 51.2583 -0.3972 328° Northwest 218 251 9,000  Level FlightAware ADS-B
Wed 03:48:28 AM 51.2654 -0.4043 324° Northwest 216 249 9,000  Level FlightAware ADS-B
Wed 03:48:31 AM 51.2681 -0.4075 320° Northwest 217 250 9,000  Level FlightAware ADS-B
Wed 03:48:44 AM 51.2777 -0.4203 321° Northwest 217 250 9,000  Level FlightAware ADS-B
Wed 03:48:47 AM 51.2807 -0.4242 325° Northwest 216 249 9,000  Level FlightAware ADS-B
Wed 03:48:56 AM 51.2878 -0.4322 326° Northwest 216 249 9,000 -286 Level FlightAware ADS-B
Wed 03:49:08 AM 51.2979 -0.4429 328° Northwest 216 249 8,900 -818 Descending FlightAware ADS-B
Wed 03:49:18 AM 51.3058 -0.4509 332° Northwest 216 249 8,700 -1,385 Descending FlightAware ADS-B
Wed 03:49:21 AM 51.3089 -0.4536 336° Northwest 216 249 8,600 -1,714 Descending FlightAware ADS-B
Wed 03:49:25 AM 51.3124 -0.4560 345° North 216 249 8,500 -750 Descending FlightAware ADS-B
Wed 03:49:29 AM 51.3163 -0.4577 353° North 217 250 8,500 -667 Level FlightAware ADS-B
Wed 03:49:34 AM 51.3213 -0.4587 359° North 218 251 8,400 -923 Descending FlightAware ADS-B
Wed 03:49:42 AM 51.3289 -0.4588 North 218 251 8,300 -947 Descending FlightAware ADS-B
Wed 03:49:53 AM 51.3396 -0.4582 North 219 252 8,100 -783 Descending FlightAware ADS-B
Wed 03:50:05 AM 51.3525 -0.4575 North 225 259 8,000 -333 Descending FlightAware ADS-B
Wed 03:50:11 AM 51.3593 -0.4570 10° North 227 261 8,000  Level FlightAware ADS-B
Wed 03:50:18 AM 51.3664 -0.4550 20° North 230 265 8,000  Level FlightAware ADS-B
Wed 03:50:22 AM 51.3703 -0.4527 28° Northeast 232 267 8,000  Level FlightAware ADS-B
Wed 03:50:27 AM 51.3748 -0.4489 40° Northeast 235 270 8,000  Level FlightAware ADS-B
Wed 03:50:33 AM 51.3803 -0.4416 50° Northeast 238 274 8,000  Level FlightAware ADS-B
Wed 03:50:36 AM 51.3825 -0.4374 55° Northeast 242 278 8,000  Level FlightAware ADS-B
Wed 03:50:39 AM 51.3845 -0.4329 66° East 245 282 8,000  Level FlightAware ADS-B
Wed 03:50:48 AM 51.3884 -0.4190 77° East 250 288 8,000  Level FlightAware ADS-B
Wed 03:50:51 AM 51.3892 -0.4134 85° East 252 290 8,000  Level FlightAware ADS-B
Wed 03:50:56 AM 51.3897 -0.4034 95° East 255 293 8,000  Level FlightAware ADS-B
Wed 03:51:01 AM 51.3892 -0.3944 101° East 257 296 8,000  Level FlightAware ADS-B
Wed 03:51:04 AM 51.3885 -0.3884 106° East 259 298 8,000  Level FlightAware ADS-B
Wed 03:51:07 AM 51.3874 -0.3825 109° East 259 298 8,000 -632 Level FlightAware ADS-B
Wed 03:51:23 AM 51.3811 -0.3539 109° East 260 299 7,800 -968 Descending FlightAware ADS-B
Wed 03:51:38 AM 51.3751 -0.3265 103° East 261 300 7,500 -1,200 Descending FlightAware ADS-B
Wed 03:51:43 AM 51.3739 -0.3185 97° East 258 297 7,400 -1,200 Descending FlightAware ADS-B
Wed 03:51:48 AM 51.3732 -0.3090 91° East 256 295 7,300 -667 Descending FlightAware ADS-B
Wed 03:51:52 AM 51.3731 -0.3005 88° East 254 292 7,300 -1,000 Level FlightAware ADS-B
Wed 03:52:00 AM 51.3734 -0.2862 86° East 252 290 7,100 -1,043 Descending FlightAware ADS-B
Wed 03:52:15 AM 51.3746 -0.2580 85° East 255 293 6,900 -1,000 Descending FlightAware ADS-B
Wed 03:52:30 AM 51.3760 -0.2296 85° East 253 291 6,600 -968 Descending FlightAware ADS-B
Wed 03:52:46 AM 51.3774 -0.2010 85° East 252 290 6,400 -774 Descending FlightAware ADS-B
Wed 03:53:01 AM 51.3788 -0.1732 85° East 252 290 6,200 -800 Descending FlightAware ADS-B
Wed 03:53:16 AM 51.3803 -0.1453 85° East 251 289 6,000 -800 Descending FlightAware ADS-B
Wed 03:53:31 AM 51.3818 -0.1162 86° East 250 288 5,800 -774 Descending FlightAware ADS-B
Wed 03:53:47 AM 51.3832 -0.0868 85° East 247 284 5,600 -727 Descending FlightAware ADS-B
Wed 03:54:04 AM 51.3847 -0.0566 83° East 245 282 5,400 -643 Descending FlightAware ADS-B
Wed 03:54:15 AM 51.3861 -0.0372 74° East 244 281 5,300 -706 Descending FlightAware ADS-B
Wed 03:54:21 AM 51.3878 -0.0275 57° Northeast 239 275 5,200 -1,000 Descending FlightAware ADS-B
Wed 03:54:33 AM 51.3949 -0.0102 35° Northeast 228 262 5,000 -900 Descending FlightAware ADS-B
Wed 03:54:41 AM 51.4015 -0.0027 22° Northeast 220 253 4,900 -500 Descending FlightAware ADS-B
Wed 03:54:45 AM 51.4049 -0.0005 12° North 213 245 4,900 -667 Level FlightAware ADS-B
Wed 03:54:50 AM 51.4097 0.0011 358° North 207 238 4,800 -1,091 Descending FlightAware ADS-B
Wed 03:54:56 AM 51.4153 0.0008 339° North 201 231 4,700 -800 Descending FlightAware ADS-B
Wed 03:55:05 AM 51.4234 -0.0042 319° Northwest 190 219 4,600 -800 Descending FlightAware ADS-B
Wed 03:55:11 AM 51.4267 -0.0089 307° West 187 215 4,500 -545 Descending FlightAware ADS-B
Wed 03:55:16 AM 51.4297 -0.0152 299° West 184 212 4,500 -545 Level FlightAware ADS-B
Wed 03:55:22 AM 51.4321 -0.0222 296° West 181 208 4,400 -857 Descending FlightAware ADS-B
Wed 03:55:44 AM 51.4399 -0.0474 297° West 174 200 4,100 -600 Descending FlightAware ADS-B
Wed 03:56:02 AM 51.4463 -0.0677 297° West 172 198 4,000 -545 Descending FlightAware ADS-B
Wed 03:56:17 AM 51.4517 -0.0849 297° West 171 197 3,800 -486 Descending FlightAware ADS-B
Wed 03:56:39 AM 51.4594 -0.1096 296° West 174 200 3,700 -387 Descending FlightAware ADS-B
Wed 03:56:48 AM 51.4621 -0.1184 290° West 173 199 3,600 -857 Descending FlightAware ADS-B
Wed 03:56:53 AM 51.4639 -0.1263 283° West 172 198 3,500 -667 Descending FlightAware ADS-B
Wed 03:56:57 AM 51.4647 -0.1320 276° West 173 199 3,500  Level FlightAware ADS-B
Wed 03:57:02 AM 51.4651 -0.1376 272° West 175 201 3,500 -545 Level FlightAware ADS-B
Wed 03:57:08 AM 51.4653 -0.1457 270° West 175 201 3,400 -1,091 Descending FlightAware ADS-B
Wed 03:57:24 AM 51.4652 -0.1658 270° West 174 200 3,100 -968 Descending FlightAware ADS-B
Wed 03:57:39 AM 51.4653 -0.1857 270° West 175 201 2,900 -1,000 Descending FlightAware ADS-B
Wed 03:57:54 AM 51.4653 -0.2057 270° West 178 205 2,600 -1,091 Descending FlightAware ADS-B
Wed 03:58:12 AM 51.4654 -0.2280 270° West 178 205 2,300 -1,000 Descending FlightAware ADS-B

Login

Don't have an account? Register now (free) for customized features, flight alerts, and more!